Time;durP1;ratioP1;P1;durP2;ratioP2;P2;SDS_P1;SDS_P2;PMS_P1;PMS_P2;Temp;Humidity;BMP_temperature;BMP_pressure;BME280_temperature;BME280_humidity;BME280_pressure;Samples;Min_cycle;Max_cycle;Signal;HPM_P1;HPM_P2
2022/11/07 00:01:09;;;;;;;5.20;3.37;;;6.40;77.50;;;;;;5025911;28;20530;-60
2022/11/07 00:03:34;;;;;;;6.10;3.03;;;6.40;77.30;;;;;;5013329;28;20485;-60
2022/11/07 00:06:01;;;;;;;4.43;3.40;;;6.50;77.20;;;;;;5019243;28;20420;-60
2022/11/07 00:08:30;;;;;;;4.43;2.97;;;6.40;77.30;;;;;;5048344;28;20191;-60
2022/11/07 00:11:00;;;;;;;4.97;3.10;;;6.50;77.20;;;;;;5035668;28;20429;-60
2022/11/07 00:13:27;;;;;;;3.47;3.17;;;6.40;77.20;;;;;;5016940;28;20429;-60
2022/11/07 00:15:54;;;;;;;4.70;2.90;;;6.40;77.30;;;;;;5032556;28;20431;-60
2022/11/07 00:18:20;;;;;;;4.87;3.13;;;6.40;77.20;;;;;;5016413;28;20529;-60
2022/11/07 00:20:45;;;;;;;5.03;2.87;;;6.40;77.20;;;;;;5026441;28;20438;-60
2022/11/07 00:23:11;;;;;;;5.43;3.20;;;6.40;77.10;;;;;;5031866;28;20431;-60
2022/11/07 00:25:37;;;;;;;6.07;3.00;;;6.40;77.10;;;;;;4988156;28;20206;-60
2022/11/07 00:28:03;;;;;;;5.77;3.43;;;6.40;77.10;;;;;;5019954;28;20187;-60
2022/11/07 00:30:28;;;;;;;3.40;3.03;;;6.40;77.10;;;;;;5018737;28;20275;-60
2022/11/07 00:32:54;;;;;;;2.87;2.43;;;6.30;77.30;;;;;;5012318;28;20566;-60
2022/11/07 00:35:19;;;;;;;3.70;2.73;;;6.40;77.40;;;;;;5034288;28;20184;-60
2022/11/07 00:37:45;;;;;;;4.37;3.10;;;6.40;77.20;;;;;;5015390;28;20646;-60
2022/11/07 00:40:12;;;;;;;8.23;2.97;;;6.30;77.30;;;;;;5018577;28;20195;-60
2022/11/07 00:42:37;;;;;;;5.10;3.07;;;6.40;77.20;;;;;;5023072;28;20737;-60
2022/11/07 00:45:03;;;;;;;5.47;3.00;;;6.40;77.10;;;;;;5016036;28;20446;-61
2022/11/07 00:47:29;;;;;;;5.10;3.53;;;6.30;76.80;;;;;;4992682;28;20215;-60
2022/11/07 00:49:54;;;;;;;3.07;2.70;;;6.30;77.10;;;;;;5016635;28;20196;-60
2022/11/07 00:52:20;;;;;;;5.40;2.90;;;6.30;77.20;;;;;;5027313;28;20655;-61
2022/11/07 00:54:46;;;;;;;4.60;2.87;;;6.30;77.60;;;;;;5032104;28;20207;-60
2022/11/07 00:57:11;;;;;;;2.97;2.57;;;6.30;77.50;;;;;;5031132;28;20235;-60
2022/11/07 00:59:37;;;;;;;4.73;2.97;;;6.30;77.30;;;;;;5015267;28;20195;-60
2022/11/07 01:02:02;;;;;;;4.40;3.10;;;6.30;77.70;;;;;;5001720;28;20195;-60
2022/11/07 01:07:12;;;;;;;4.73;3.20;;;6.30;77.70;;;;;;5010797;28;20677;-60
2022/11/07 01:09:38;;;;;;;4.50;3.10;;;6.20;77.60;;;;;;5031476;28;20434;-60
2022/11/07 01:12:04;;;;;;;4.23;3.27;;;6.20;77.60;;;;;;5028487;28;20231;-60
2022/11/07 01:14:30;;;;;;;3.33;2.50;;;6.10;77.70;;;;;;5015812;28;20188;-61
2022/11/07 01:16:56;;;;;;;3.70;3.13;;;6.20;77.90;;;;;;4997169;28;20489;-60
2022/11/07 01:19:22;;;;;;;3.83;2.93;;;6.20;77.70;;;;;;5019072;28;20188;-60
2022/11/07 01:21:47;;;;;;;4.37;2.70;;;6.10;78.10;;;;;;4998190;28;20246;-60
2022/11/07 01:24:14;;;;;;;4.40;2.60;;;6.20;78.30;;;;;;5026984;28;20249;-60
2022/11/07 01:26:41;;;;;;;3.17;2.50;;;6.30;78.30;;;;;;5013739;28;20199;-60
2022/11/07 01:29:07;;;;;;;3.47;2.83;;;6.30;77.90;;;;;;5005759;28;20425;-60
2022/11/07 01:31:33;;;;;;;2.90;2.10;;;6.20;78.10;;;;;;5026537;28;20557;-60
2022/11/07 01:33:59;;;;;;;3.07;2.73;;;6.20;78.50;;;;;;5026555;28;20189;-60
2022/11/07 01:36:25;;;;;;;3.40;2.73;;;6.30;78.40;;;;;;5031217;28;20190;-60
2022/11/07 01:38:51;;;;;;;5.90;2.77;;;6.30;78.40;;;;;;5035041;28;20434;-60
2022/11/07 01:41:28;;;;;;;3.27;2.43;;;6.30;78.30;;;;;;5014536;28;20909;-60
2022/11/07 01:44:07;;;;;;;3.43;2.63;;;6.20;78.20;;;;;;4994652;28;20230;-60
2022/11/07 01:46:38;;;;;;;3.90;2.63;;;6.30;78.40;;;;;;5022343;28;20421;-60
2022/11/07 01:49:12;;;;;;;2.87;2.57;;;6.30;78.00;;;;;;5015731;28;20458;-60
2022/11/07 01:52:00;;;;;;;3.10;2.40;;;6.30;78.10;;;;;;5022490;28;20548;-60
2022/11/07 01:54:38;;;;;;;3.10;2.40;;;6.40;78.30;;;;;;5017365;28;20433;-60
2022/11/07 01:57:10;;;;;;;6.77;2.90;;;6.40;78.00;;;;;;5032191;28;20472;-60
2022/11/07 01:59:37;;;;;;;3.17;2.67;;;6.40;77.90;;;;;;5046241;28;20800;-60
2022/11/07 02:02:04;;;;;;;3.53;2.97;;;6.40;78.00;;;;;;5040630;28;20458;-60
2022/11/07 02:04:30;;;;;;;3.20;2.63;;;6.30;78.00;;;;;;5032748;28;20474;-60
2022/11/07 02:07:10;;;;;;;2.93;2.40;;;6.20;78.60;;;;;;5029928;28;20454;-60
2022/11/07 02:09:36;;;;;;;3.07;2.50;;;6.30;78.50;;;;;;5015271;28;20446;-60
2022/11/07 02:12:01;;;;;;;2.43;2.23;;;6.30;78.80;;;;;;5001198;28;20497;-60
2022/11/07 02:14:30;;;;;;;3.43;2.80;;;6.30;78.50;;;;;;5000977;28;20238;-60
2022/11/07 02:16:56;;;;;;;2.73;2.40;;;6.30;78.50;;;;;;5024670;28;20186;-60
2022/11/07 02:19:36;;;;;;;7.83;2.90;;;6.30;78.20;;;;;;4999541;28;20510;-60
2022/11/07 02:22:34;;;;;;;3.00;2.47;;;6.20;78.90;;;;;;5042835;28;20434;-60
2022/11/07 02:25:05;;;;;;;4.43;3.27;;;6.30;78.90;;;;;;5016519;28;20513;-60
2022/11/07 02:27:32;;;;;;;2.90;2.33;;;6.30;78.90;;;;;;5019916;28;20438;-60
2022/11/07 02:30:02;;;;;;;4.87;2.60;;;6.20;78.60;;;;;;5041502;28;20441;-60
2022/11/07 02:32:28;;;;;;;5.77;2.50;;;6.10;79.20;;;;;;5022475;28;20478;-60
2022/11/07 02:34:55;;;;;;;3.13;2.20;;;6.20;79.10;;;;;;5029392;28;20435;-60
2022/11/07 02:37:31;;;;;;;3.67;2.43;;;6.30;79.30;;;;;;5013648;28;20191;-60
2022/11/07 02:39:59;;;;;;;2.67;2.07;;;6.40;79.20;;;;;;5013116;28;20430;-60
2022/11/07 02:42:25;;;;;;;3.97;2.60;;;6.50;79.00;;;;;;5033620;28;20445;-60
2022/11/07 02:44:54;;;;;;;6.70;2.60;;;6.40;78.80;;;;;;5046728;28;20441;-60
2022/11/07 02:47:20;;;;;;;3.97;2.60;;;6.30;79.50;;;;;;5045985;28;20449;-60
2022/11/07 02:49:45;;;;;;;3.10;2.37;;;6.40;79.10;;;;;;5021741;28;20438;-60
2022/11/07 02:52:11;;;;;;;4.63;2.30;;;6.40;78.90;;;;;;5045437;28;20256;-60
2022/11/07 02:54:37;;;;;;;5.13;2.80;;;6.40;78.80;;;;;;5036022;28;20234;-60
2022/11/07 02:57:02;;;;;;;2.83;2.10;;;6.50;79.10;;;;;;5011469;28;20334;-60
2022/11/07 02:59:28;;;;;;;2.40;2.20;;;6.50;78.80;;;;;;5047780;28;20199;-60
2022/11/07 03:01:54;;;;;;;3.03;2.50;;;6.50;78.70;;;;;;5012349;28;20183;-60
2022/11/07 03:04:19;;;;;;;3.87;2.67;;;6.50;78.70;;;;;;5030602;28;20195;-60
2022/11/07 03:06:45;;;;;;;3.17;2.30;;;6.50;78.50;;;;;;5029383;28;20198;-60
2022/11/07 03:09:11;;;;;;;4.77;2.33;;;6.30;79.00;;;;;;5028357;28;20194;-60
2022/11/07 03:11:36;;;;;;;3.87;2.43;;;6.50;79.10;;;;;;5029357;28;20211;-60
2022/11/07 03:14:02;;;;;;;3.37;2.37;;;6.60;78.90;;;;;;5028833;28;20528;-60
2022/11/07 03:16:28;;;;;;;2.60;2.40;;;6.40;79.40;;;;;;5020861;28;20192;-60
2022/11/07 03:18:53;;;;;;;3.60;2.70;;;6.50;79.20;;;;;;5029043;28;20188;-60
2022/11/07 03:21:19;;;;;;;3.77;2.50;;;6.50;79.30;;;;;;5034225;28;20191;-60
2022/11/07 03:23:44;;;;;;;3.63;2.60;;;6.60;79.10;;;;;;5033276;28;20248;-60
2022/11/07 03:26:10;;;;;;;5.47;2.90;;;6.70;79.20;;;;;;5026447;28;20267;-60
2022/11/07 03:28:36;;;;;;;3.93;3.03;;;6.80;79.10;;;;;;5025234;28;20235;-60
2022/11/07 03:31:03;;;;;;;3.40;2.07;;;6.80;79.00;;;;;;5026089;28;20184;-60
2022/11/07 03:33:29;;;;;;;3.20;2.50;;;6.70;78.90;;;;;;5039195;28;20245;-60
2022/11/07 03:35:55;;;;;;;2.90;2.30;;;6.80;79.00;;;;;;5046085;28;20426;-60
2022/11/07 03:38:21;;;;;;;2.60;2.20;;;6.80;78.70;;;;;;5028970;28;20433;-60
2022/11/07 03:40:47;;;;;;;3.70;2.33;;;6.90;78.70;;;;;;5006988;28;20290;-60
2022/11/07 03:43:12;;;;;;;6.90;2.20;;;6.90;78.50;;;;;;5037189;28;20191;-60
2022/11/07 03:45:38;;;;;;;2.97;2.10;;;6.80;78.60;;;;;;5026586;28;20515;-60
2022/11/07 03:48:04;;;;;;;5.43;2.60;;;6.80;78.60;;;;;;5034954;28;20310;-60
2022/11/07 03:50:30;;;;;;;2.40;2.20;;;6.80;79.00;;;;;;5016889;28;20199;-60
2022/11/07 03:52:55;;;;;;;2.93;2.20;;;6.90;78.80;;;;;;5016139;28;20353;-60
2022/11/07 03:55:21;;;;;;;4.67;2.47;;;6.90;79.00;;;;;;5004897;28;20238;-60
2022/11/07 03:57:47;;;;;;;2.97;2.63;;;7.00;79.10;;;;;;5053883;28;20308;-60
2022/11/07 04:00:14;;;;;;;3.40;3.07;;;7.00;79.20;;;;;;5028219;28;20286;-60
2022/11/07 04:02:40;;;;;;;3.60;2.60;;;6.90;79.30;;;;;;5000663;28;20195;-60
2022/11/07 04:05:07;;;;;;;3.57;2.47;;;6.90;79.30;;;;;;5035672;28;20450;-60
2022/11/07 04:07:34;;;;;;;2.80;2.10;;;7.00;79.40;;;;;;5001494;28;20473;-60
2022/11/07 04:09:59;;;;;;;3.33;2.60;;;7.10;79.30;;;;;;5025017;28;20439;-60
2022/11/07 04:17:54;;;;;;;1.83;1.70;;;7.30;78.40;;;;;;5049317;28;20493;-60
2022/11/07 04:20:20;;;;;;;2.90;1.90;;;7.30;78.70;;;;;;5032905;28;20431;-60
2022/11/07 04:22:45;;;;;;;3.83;2.53;;;7.30;78.50;;;;;;5032158;28;20656;-60
2022/11/07 04:25:11;;;;;;;3.50;2.23;;;7.40;79.00;;;;;;5032847;28;20203;-60
2022/11/07 04:27:43;;;;;;;2.93;2.60;;;7.40;79.40;;;;;;5055868;28;20187;-60
2022/11/07 04:30:25;;;;;;;2.87;2.17;;;7.40;79.60;;;;;;4998959;28;20189;-60
2022/11/07 04:32:51;;;;;;;6.87;3.03;;;7.30;79.90;;;;;;5045832;28;20504;-60
2022/11/07 04:35:22;;;;;;;3.80;2.50;;;7.30;80.40;;;;;;5050228;28;20434;-60
2022/11/07 04:37:48;;;;;;;2.90;2.43;;;7.30;80.60;;;;;;5031471;28;20444;-60
2022/11/07 04:40:14;;;;;;;3.23;2.53;;;7.30;81.50;;;;;;5016307;28;20446;-60
2022/11/07 04:42:41;;;;;;;4.07;2.87;;;7.30;82.20;;;;;;5016261;28;20249;-60
2022/11/07 04:45:07;;;;;;;5.40;2.90;;;7.30;82.60;;;;;;5038610;28;20427;-60
2022/11/07 04:47:33;;;;;;;3.90;2.70;;;7.30;82.20;;;;;;5032719;28;20576;-60
2022/11/07 04:49:58;;;;;;;4.33;2.47;;;7.30;82.30;;;;;;5032009;28;20462;-60
2022/11/07 04:52:24;;;;;;;5.03;3.10;;;7.20;81.80;;;;;;5022741;28;20246;-60
2022/11/07 04:54:50;;;;;;;3.40;2.60;;;7.30;82.60;;;;;;5037804;28;20200;-60
2022/11/07 04:57:15;;;;;;;5.33;2.70;;;7.30;82.60;;;;;;5022315;28;20243;-60
2022/11/07 04:59:41;;;;;;;2.93;2.40;;;7.30;83.20;;;;;;5038244;28;20192;-60
2022/11/07 05:02:11;;;;;;;3.27;2.33;;;7.30;83.20;;;;;;5030754;28;20195;-60
2022/11/07 05:04:37;;;;;;;3.50;2.37;;;7.30;83.70;;;;;;5050514;28;20191;-60
2022/11/07 05:07:03;;;;;;;3.83;2.20;;;7.30;83.70;;;;;;5021682;28;20442;-60
2022/11/07 05:09:29;;;;;;;2.77;2.40;;;7.30;84.30;;;;;;5032251;28;20437;-60
2022/11/07 05:11:55;;;;;;;3.67;3.00;;;7.30;84.90;;;;;;5060753;28;20471;-60
2022/11/07 05:14:21;;;;;;;3.87;2.70;;;7.30;86.50;;;;;;5032886;28;20769;-60
2022/11/07 05:16:49;;;;;;;3.40;2.43;;;7.20;87.40;;;;;;4997307;28;20191;-58
2022/11/07 05:19:16;;;;;;;3.17;2.57;;;7.20;87.60;;;;;;5041316;28;20190;-58
2022/11/07 05:21:42;;;;;;;5.17;3.00;;;7.20;88.00;;;;;;5001821;28;20518;-58
2022/11/07 05:24:08;;;;;;;4.17;3.13;;;7.20;88.10;;;;;;5014101;28;20434;-58
2022/11/07 05:26:34;;;;;;;3.60;3.07;;;7.10;88.60;;;;;;5055145;28;20430;-58
2022/11/07 05:28:59;;;;;;;4.47;2.60;;;7.10;88.90;;;;;;5016002;28;20214;-58
2022/11/07 05:31:25;;;;;;;4.87;3.00;;;7.00;88.90;;;;;;4999490;28;20192;-59
2022/11/07 05:33:51;;;;;;;3.97;2.80;;;7.00;89.20;;;;;;5035951;28;20198;-59
2022/11/07 05:36:19;;;;;;;3.67;3.10;;;7.10;89.50;;;;;;5034147;28;20203;-59
2022/11/07 05:38:50;;;;;;;3.30;3.00;;;7.10;89.40;;;;;;5019144;28;20183;-60
2022/11/07 05:41:17;;;;;;;5.33;3.13;;;7.10;89.60;;;;;;5014875;28;20499;-59
2022/11/07 05:43:43;;;;;;;4.97;3.10;;;7.20;89.70;;;;;;5036758;28;20426;-58
2022/11/07 05:46:09;;;;;;;4.13;3.10;;;7.10;89.80;;;;;;5022840;28;20441;-58
2022/11/07 05:48:35;;;;;;;3.50;2.63;;;7.00;90.00;;;;;;5041934;28;20190;-59
2022/11/07 05:51:02;;;;;;;8.07;3.67;;;6.80;91.10;;;;;;5014477;28;20437;-59
2022/11/07 05:53:28;;;;;;;5.23;3.60;;;6.80;91.80;;;;;;5044655;28;20208;-59
2022/11/07 05:55:54;;;;;;;5.37;3.40;;;6.80;92.50;;;;;;5027305;28;20520;-59
2022/11/07 05:58:20;;;;;;;3.77;3.13;;;6.80;93.40;;;;;;5051045;28;20191;-59
2022/11/07 06:00:47;;;;;;;4.07;3.17;;;6.90;93.80;;;;;;5014054;28;20200;-59
2022/11/07 06:03:13;;;;;;;6.03;3.37;;;6.90;94.10;;;;;;5018595;28;20922;-59
2022/11/07 06:05:40;;;;;;;7.23;3.60;;;6.90;94.30;;;;;;4998353;28;20446;-59
2022/11/07 06:08:08;;;;;;;4.43;3.13;;;6.90;94.60;;;;;;4997771;28;20427;-59
2022/11/07 06:10:35;;;;;;;7.57;3.70;;;7.00;94.80;;;;;;4985041;28;20504;-59
2022/11/07 06:13:03;;;;;;;4.57;3.40;;;6.80;94.80;;;;;;5010871;28;20469;-59
2022/11/07 06:15:30;;;;;;;4.53;3.80;;;6.80;94.90;;;;;;5017786;28;20461;-59
2022/11/07 06:17:59;;;;;;;4.40;3.37;;;6.90;95.00;;;;;;5026769;28;20449;-59
2022/11/07 06:20:25;;;;;;;4.67;3.53;;;7.00;95.00;;;;;;5013587;28;20442;-59
2022/11/07 06:22:51;;;;;;;6.87;3.47;;;7.10;95.00;;;;;;5001977;28;20435;-58
2022/11/07 06:25:16;;;;;;;6.73;4.17;;;6.90;94.90;;;;;;4992881;28;20234;-58
2022/11/07 06:27:42;;;;;;;5.97;3.90;;;7.00;95.00;;;;;;5026125;28;20254;-58
2022/11/07 06:30:08;;;;;;;4.77;3.20;;;7.00;94.90;;;;;;5017611;28;20199;-58
2022/11/07 06:32:35;;;;;;;6.70;3.63;;;7.00;94.80;;;;;;5009799;28;20211;-59
2022/11/07 06:35:01;;;;;;;7.20;3.90;;;7.00;94.70;;;;;;4999033;28;20434;-59
2022/11/07 06:37:27;;;;;;;4.83;4.23;;;6.90;94.70;;;;;;5031316;28;20503;-59
2022/11/07 06:39:52;;;;;;;5.53;4.13;;;7.00;94.60;;;;;;5015022;28;20238;-59
2022/11/07 06:42:18;;;;;;;7.10;4.60;;;7.00;94.60;;;;;;4994278;28;20198;-59
2022/11/07 06:44:43;;;;;;;8.13;5.37;;;7.00;94.50;;;;;;5010462;28;20294;-59
2022/11/07 06:47:09;;;;;;;6.10;4.30;;;7.10;94.40;;;;;;5011045;28;20214;-59
2022/11/07 06:49:35;;;;;;;5.77;4.33;;;7.00;94.30;;;;;;5012139;28;20231;-59
2022/11/07 06:52:01;;;;;;;5.77;4.73;;;7.00;94.00;;;;;;4998704;28;20208;-59
2022/11/07 06:54:26;;;;;;;5.70;3.73;;;7.00;94.00;;;;;;5011195;28;20223;-59
2022/11/07 06:56:52;;;;;;;8.00;4.80;;;7.10;94.00;;;;;;5004990;28;20501;-59
2022/11/07 06:59:18;;;;;;;6.23;4.33;;;7.00;93.90;;;;;;5026749;28;20198;-59
2022/11/07 07:01:43;;;;;;;5.63;4.63;;;7.10;94.00;;;;;;4991937;28;20329;-59
2022/11/07 07:04:10;;;;;;;8.53;4.40;;;7.10;94.00;;;;;;5020454;28;20202;-59
2022/11/07 07:06:36;;;;;;;6.73;4.60;;;7.20;93.90;;;;;;5046437;28;20199;-59
2022/11/07 07:09:02;;;;;;;6.03;4.20;;;7.20;93.80;;;;;;5010528;28;20453;-59
2022/11/07 07:11:27;;;;;;;12.77;5.03;;;7.10;93.70;;;;;;5006612;28;20426;-59
2022/11/07 07:13:55;;;;;;;6.03;4.73;;;7.10;93.60;;;;;;5035274;28;20198;-59
2022/11/07 07:16:21;;;;;;;6.77;4.77;;;7.10;93.50;;;;;;5019473;28;20191;-59
2022/11/07 07:18:46;;;;;;;5.93;4.23;;;7.00;93.50;;;;;;5047797;28;20433;-59
2022/11/07 07:21:13;;;;;;;7.93;4.90;;;7.00;93.40;;;;;;5015190;28;20183;-59
2022/11/07 07:23:39;;;;;;;6.17;4.27;;;7.00;93.30;;;;;;5041608;28;20223;-59
2022/11/07 07:26:09;;;;;;;5.87;4.13;;;7.00;93.20;;;;;;5030551;28;20431;-59
2022/11/07 07:28:36;;;;;;;6.97;4.87;;;6.90;93.00;;;;;;5038310;28;20430;-59
2022/11/07 07:31:13;;;;;;;5.47;4.53;;;6.90;93.20;;;;;;5031565;28;20439;-59
2022/11/07 07:33:40;;;;;;;5.60;4.07;;;6.90;93.20;;;;;;5046982;28;20474;-59
2022/11/07 07:36:06;;;;;;;5.03;3.97;;;6.90;93.20;;;;;;5031610;28;20936;-59
2022/11/07 07:38:32;;;;;;;6.97;4.37;;;7.00;93.20;;;;;;5029202;28;20434;-59
2022/11/07 07:40:58;;;;;;;5.97;4.20;;;6.90;93.10;;;;;;5014505;28;20443;-59
2022/11/07 07:43:26;;;;;;;7.97;3.53;;;6.90;93.10;;;;;;5047179;28;20188;-59
2022/11/07 07:45:52;;;;;;;4.13;3.53;;;6.90;93.00;;;;;;5056233;28;20459;-59
2022/11/07 07:48:17;;;;;;;4.97;3.87;;;6.80;93.00;;;;;;5018468;28;20442;-59
2022/11/07 07:50:45;;;;;;;8.33;4.27;;;6.80;93.10;;;;;;5046307;28;20199;-59
2022/11/07 07:53:11;;;;;;;5.57;4.30;;;6.80;93.10;;;;;;5029960;28;20218;-59
2022/11/07 07:55:37;;;;;;;6.10;4.07;;;6.90;93.20;;;;;;4997289;28;20467;-59
2022/11/07 07:58:03;;;;;;;5.37;3.70;;;6.90;93.20;;;;;;5030621;28;20187;-59
2022/11/07 08:00:28;;;;;;;4.30;3.30;;;6.90;93.00;;;;;;5010044;28;20187;-59
2022/11/07 08:03:08;;;;;;;7.40;3.73;;;6.90;93.00;;;;;;5030403;28;20196;-59
2022/11/07 08:05:35;;;;;;;5.10;3.53;;;6.90;93.00;;;;;;5012764;28;20192;-59
2022/11/07 08:08:00;;;;;;;4.90;3.87;;;6.90;93.10;;;;;;5031221;28;20433;-59
2022/11/07 08:10:26;;;;;;;4.47;3.63;;;7.00;93.10;;;;;;5035357;28;20439;-59
2022/11/07 08:12:52;;;;;;;5.47;4.07;;;7.00;93.00;;;;;;5014426;28;20313;-59
2022/11/07 08:15:18;;;;;;;6.27;3.73;;;7.00;93.00;;;;;;5030808;28;20187;-59
2022/11/07 08:17:45;;;;;;;6.70;3.43;;;7.10;93.10;;;;;;5031270;28;20198;-59
2022/11/07 08:20:14;;;;;;;6.60;4.20;;;7.10;93.00;;;;;;5012762;28;20438;-59
2022/11/07 08:22:40;;;;;;;5.17;3.80;;;7.10;93.00;;;;;;5046230;28;20426;-59
2022/11/07 08:25:08;;;;;;;6.10;4.67;;;7.10;93.00;;;;;;5015274;28;20461;-59
2022/11/07 08:27:34;;;;;;;5.17;3.73;;;7.10;93.00;;;;;;5011933;28;20446;-59
2022/11/07 08:30:00;;;;;;;4.60;3.67;;;7.20;93.00;;;;;;5030656;28;20423;-59
2022/11/07 08:32:27;;;;;;;6.90;4.23;;;7.20;93.10;;;;;;5029514;28;20463;-59
2022/11/07 08:34:53;;;;;;;7.27;3.90;;;7.30;93.20;;;;;;5022069;28;20433;-59
2022/11/07 08:37:18;;;;;;;6.73;4.63;;;7.30;93.20;;;;;;5034218;28;20439;-59
2022/11/07 08:39:44;;;;;;;4.53;3.97;;;7.30;93.10;;;;;;5020922;28;20513;-59
2022/11/07 08:42:10;;;;;;;6.90;4.63;;;7.20;92.80;;;;;;5026125;28;20202;-59
2022/11/07 08:44:36;;;;;;;7.53;5.03;;;7.30;93.10;;;;;;5027407;28;20204;-59
2022/11/07 08:47:02;;;;;;;8.07;4.70;;;7.40;93.20;;;;;;5031401;28;20282;-59
2022/11/07 08:49:28;;;;;;;5.67;4.93;;;7.40;93.20;;;;;;5029954;28;20179;-59
2022/11/07 08:51:54;;;;;;;7.23;4.97;;;7.40;93.20;;;;;;5015709;28;20480;-59
2022/11/07 08:54:20;;;;;;;6.67;4.60;;;7.50;93.30;;;;;;5016945;28;20254;-59
2022/11/07 08:56:46;;;;;;;6.53;4.60;;;7.60;93.30;;;;;;5027126;28;20239;-59
2022/11/07 08:59:13;;;;;;;7.40;4.33;;;7.60;93.30;;;;;;5029858;28;20438;-59
2022/11/07 09:01:38;;;;;;;4.17;3.77;;;7.70;93.30;;;;;;5044514;28;20442;-59
2022/11/07 09:04:04;;;;;;;6.23;4.10;;;7.70;93.30;;;;;;5012996;28;20446;-59
2022/11/07 09:06:31;;;;;;;6.17;4.17;;;7.80;93.40;;;;;;5031607;28;20199;-59
2022/11/07 09:08:58;;;;;;;6.00;4.23;;;7.80;93.40;;;;;;5030511;28;20717;-59
2022/11/07 09:11:24;;;;;;;5.83;4.23;;;7.90;93.50;;;;;;5031061;28;20454;-59
2022/11/07 09:13:51;;;;;;;9.57;5.00;;;8.00;93.70;;;;;;5013004;28;20481;-59
2022/11/07 09:16:18;;;;;;;7.97;4.90;;;8.00;93.40;;;;;;5014538;28;20536;-59
2022/11/07 09:18:45;;;;;;;5.43;4.43;;;8.10;93.40;;;;;;5012729;28;20434;-59
2022/11/07 09:21:11;;;;;;;6.57;4.37;;;8.20;93.50;;;;;;5045721;28;20453;-59
2022/11/07 09:23:37;;;;;;;6.93;4.47;;;8.20;93.40;;;;;;5044152;28;20543;-59
2022/11/07 09:26:03;;;;;;;4.87;3.73;;;8.30;92.80;;;;;;5006857;28;20524;-59
2022/11/07 09:28:29;;;;;;;8.37;3.80;;;8.30;92.90;;;;;;4996305;28;20196;-59
2022/11/07 09:30:57;;;;;;;5.20;4.40;;;8.30;92.90;;;;;;5012095;28;20202;-59
2022/11/07 09:33:24;;;;;;;5.13;3.83;;;8.30;93.00;;;;;;5042631;28;20462;-59
2022/11/07 09:35:50;;;;;;;6.03;3.50;;;8.40;93.00;;;;;;5011556;28;20509;-59
2022/11/07 09:38:16;;;;;;;5.83;3.73;;;8.40;93.00;;;;;;5001784;28;20505;-59
2022/11/07 09:41:03;;;;;;;8.17;4.03;;;8.50;92.70;;;;;;5045507;28;20537;-59
2022/11/07 09:44:06;;;;;;;6.10;3.97;;;8.60;92.40;;;;;;5016162;28;20182;-59
2022/11/07 09:46:43;;;;;;;5.17;3.60;;;8.60;92.50;;;;;;5018346;28;20429;-59
2022/11/07 09:49:17;;;;;;;5.13;3.67;;;8.70;92.80;;;;;;5014041;28;20423;-59
2022/11/07 09:51:48;;;;;;;5.37;3.73;;;8.80;93.10;;;;;;5017052;28;20461;-59
2022/11/07 09:54:19;;;;;;;7.10;3.83;;;8.80;92.80;;;;;;5022754;28;20429;-59
2022/11/07 09:56:45;;;;;;;3.40;3.10;;;8.80;92.70;;;;;;5012316;28;20477;-59
2022/11/07 09:59:23;;;;;;;3.80;3.13;;;8.90;92.40;;;;;;5017177;28;20446;-59
2022/11/07 10:01:49;;;;;;;5.03;2.93;;;8.90;92.60;;;;;;5010931;28;20434;-59
2022/11/07 10:04:18;;;;;;;2.73;2.53;;;9.00;92.20;;;;;;5030167;28;20493;-59
2022/11/07 10:07:09;;;;;;;4.73;2.53;;;9.10;91.70;;;;;;5011912;28;20232;-60
2022/11/07 10:10:16;;;;;;;4.97;2.33;;;9.30;87.50;;;;;;5012065;28;20427;-60
2022/11/07 10:12:57;;;;;;;2.43;2.07;;;9.70;87.10;;;;;;5002690;28;20450;-59
2022/11/07 10:16:11;;;;;;;2.80;2.20;;;9.60;89.30;;;;;;5006314;28;20461;-60
2022/11/07 10:18:45;;;;;;;2.77;2.20;;;9.50;89.40;;;;;;5012647;28;20434;-60
2022/11/07 10:21:17;;;;;;;2.20;1.80;;;9.40;90.20;;;;;;5012241;28;20426;-60
2022/11/07 10:23:56;;;;;;;2.33;1.77;;;9.50;90.40;;;;;;5012887;28;20417;-59
2022/11/07 10:26:25;;;;;;;2.07;1.57;;;9.50;90.60;;;;;;5023047;28;20442;-59
2022/11/07 10:29:01;;;;;;;2.37;1.90;;;9.50;90.60;;;;;;5045707;28;20426;-59
2022/11/07 10:31:38;;;;;;;2.23;1.70;;;9.60;88.50;;;;;;5011209;28;20271;-59
2022/11/07 10:34:14;;;;;;;4.90;3.40;;;9.70;88.00;;;;;;5010907;28;20180;-59
2022/11/07 10:36:39;;;;;;;2.33;1.50;;;9.70;88.50;;;;;;5010160;28;20438;-59
2022/11/07 10:39:14;;;;;;;2.03;1.53;;;10.00;83.90;;;;;;5030491;28;20426;-60
2022/11/07 10:41:43;;;;;;;2.60;1.67;;;10.10;85.20;;;;;;5011920;28;20180;-59
2022/11/07 10:44:16;;;;;;;2.70;1.80;;;10.10;86.70;;;;;;5014674;28;20183;-59
2022/11/07 10:46:44;;;;;;;2.73;1.73;;;10.10;86.90;;;;;;5011055;28;20210;-60
2022/11/07 10:49:29;;;;;;;1.80;1.63;;;10.20;88.00;;;;;;4994822;28;20195;-59
2022/11/07 10:52:17;;;;;;;3.27;2.13;;;10.10;87.60;;;;;;5005560;28;20274;-60
2022/11/07 10:54:43;;;;;;;2.40;1.90;;;10.20;87.40;;;;;;4998895;28;20191;-59
2022/11/07 10:57:09;;;;;;;1.80;1.57;;;10.20;87.20;;;;;;5023284;28;20228;-60
2022/11/07 10:59:58;;;;;;;4.30;2.17;;;10.30;87.70;;;;;;5010022;28;20187;-60
2022/11/07 11:02:29;;;;;;;2.20;2.00;;;10.30;87.10;;;;;;5040743;28;20249;-60
2022/11/07 11:04:55;;;;;;;3.57;1.80;;;10.70;82.70;;;;;;5010776;28;20613;-60
2022/11/07 11:07:26;;;;;;;2.33;1.70;;;10.80;85.20;;;;;;5042643;28;20192;-60
2022/11/07 11:09:56;;;;;;;3.10;2.00;;;10.90;82.60;;;;;;5042876;28;20201;-60
2022/11/07 11:12:28;;;;;;;4.00;2.10;;;10.90;84.30;;;;;;5010055;28;20671;-60
2022/11/07 11:15:09;;;;;;;3.53;2.00;;;10.80;84.70;;;;;;5042960;28;20176;-60
2022/11/07 11:17:35;;;;;;;2.67;2.23;;;10.90;84.50;;;;;;5010006;28;20188;-60
2022/11/07 11:20:02;;;;;;;2.67;2.20;;;11.00;84.50;;;;;;5011416;28;20190;-60
2022/11/07 11:22:28;;;;;;;4.87;2.20;;;11.60;79.10;;;;;;5011101;28;20195;-60
2022/11/07 11:25:15;;;;;;;2.20;1.73;;;11.50;81.50;;;;;;4997729;28;20188;-60
2022/11/07 11:27:41;;;;;;;1.73;1.27;;;11.40;82.70;;;;;;5043435;28;20219;-60
2022/11/07 11:30:14;;;;;;;2.47;1.60;;;11.40;82.00;;;;;;5010911;28;20187;-60
2022/11/07 11:33:06;;;;;;;2.37;1.60;;;11.60;81.50;;;;;;5042588;28;20548;-60
2022/11/07 11:35:37;;;;;;;1.53;1.33;;;11.50;81.90;;;;;;5010832;28;20232;-60
2022/11/07 11:38:27;;;;;;;2.40;1.30;;;11.70;81.90;;;;;;5049547;28;20180;-60
2022/11/07 11:41:19;;;;;;;1.57;1.17;;;11.60;83.80;;;;;;5042600;28;20176;-60
2022/11/07 11:44:01;;;;;;;1.37;1.20;;;12.00;81.20;;;;;;5041982;28;20264;-60
2022/11/07 11:46:39;;;;;;;1.67;1.00;;;12.20;78.60;;;;;;5010145;28;20180;-60
2022/11/07 11:49:35;;;;;;;1.00;0.90;;;12.10;80.30;;;;;;5010836;28;20252;-61
2022/11/07 11:52:07;;;;;;;1.80;1.20;;;12.00;82.60;;;;;;5011783;28;20203;-61
2022/11/07 11:54:33;;;;;;;0.77;0.77;;;12.70;73.10;;;;;;5008395;28;20180;-61
2022/11/07 11:57:14;;;;;;;0.73;0.73;;;13.00;76.80;;;;;;5009254;28;20231;-61
2022/11/07 12:00:01;;;;;;;1.20;0.80;;;13.20;74.60;;;;;;5017429;28;20225;-59
2022/11/07 12:02:54;;;;;;;1.53;0.90;;;13.10;75.00;;;;;;5024870;28;20198;-59
2022/11/07 12:05:51;;;;;;;1.23;0.90;;;13.30;69.50;;;;;;5030861;28;20188;-60
2022/11/07 12:08:54;;;;;;;1.17;0.97;;;13.40;75.80;;;;;;5019139;28;20175;-59
2022/11/07 12:11:37;;;;;;;2.43;1.10;;;13.30;78.70;;;;;;5056833;28;20187;-60
2022/11/07 12:14:12;;;;;;;1.13;0.93;;;13.90;70.30;;;;;;5050830;28;20199;-61
2022/11/07 12:16:56;;;;;;;1.27;0.73;;;14.10;71.00;;;;;;5047965;28;20186;-61
2022/11/07 12:19:21;;;;;;;1.07;0.70;;;13.80;69.60;;;;;;5043218;28;20187;-60
2022/11/07 12:22:07;;;;;;;1.30;0.93;;;13.90;68.90;;;;;;5016235;28;20231;-60
2022/11/07 12:24:42;;;;;;;1.13;1.00;;;13.90;72.40;;;;;;5019399;28;20199;-61
2022/11/07 12:27:22;;;;;;;1.17;1.10;;;14.00;70.90;;;;;;5018838;28;20198;-62
2022/11/07 12:30:21;;;;;;;3.03;1.07;;;13.90;73.30;;;;;;5015944;28;20187;-61
2022/11/07 12:33:11;;;;;;;1.20;1.10;;;13.80;77.60;;;;;;5004890;28;20215;-61
2022/11/07 12:35:58;;;;;;;3.53;1.00;;;13.90;69.90;;;;;;5050569;28;20234;-60
2022/11/07 12:38:54;;;;;;;2.43;1.03;;;14.10;74.70;;;;;;5018351;28;20328;-60
2022/11/07 12:41:33;;;;;;;1.47;1.03;;;14.30;68.60;;;;;;5046979;28;20186;-60
2022/11/07 12:44:20;;;;;;;0.93;0.70;;;14.20;73.10;;;;;;5048222;28;20184;-60
2022/11/07 12:47:00;;;;;;;1.03;0.90;;;14.10;75.00;;;;;;5042229;28;20267;-61
2022/11/07 12:49:42;;;;;;;2.30;1.00;;;14.10;76.30;;;;;;5016778;28;20196;-60
2022/11/07 12:52:22;;;;;;;1.17;0.90;;;14.40;68.60;;;;;;5021954;28;20196;-60
2022/11/07 12:55:02;;;;;;;0.67;0.67;;;14.40;69.30;;;;;;5051427;28;20186;-60
2022/11/07 12:57:32;;;;;;;1.20;0.60;;;14.50;71.50;;;;;;5017307;28;20231;-60
2022/11/07 13:00:06;;;;;;;1.27;0.90;;;14.70;66.40;;;;;;5029808;28;20175;-60
2022/11/07 13:03:05;;;;;;;1.53;1.00;;;14.60;68.10;;;;;;5016380;28;20188;-61
2022/11/07 13:06:06;;;;;;;4.37;1.03;;;14.60;65.80;;;;;;5007512;28;20279;-60
2022/11/07 13:08:44;;;;;;;0.93;0.80;;;14.90;66.90;;;;;;5015239;28;20287;-61
2022/11/07 13:11:35;;;;;;;1.53;0.80;;;14.80;64.70;;;;;;5016768;28;20211;-60
2022/11/07 13:14:19;;;;;;;1.23;0.73;;;15.00;62.80;;;;;;4997258;28;20648;-60
2022/11/07 13:17:26;;;;;;;0.63;0.63;;;15.10;62.10;;;;;;5036773;28;20180;-60
2022/11/07 13:20:04;;;;;;;2.57;0.90;;;15.20;64.40;;;;;;5006848;28;20252;-61